createdAt,value
2018-07-11T00:00:14.016Z,7.40
2018-07-11T00:02:42.649Z,7.35
2018-07-11T00:05:11.105Z,7.55
2018-07-11T00:07:39.629Z,7.57
2018-07-11T00:10:08.187Z,7.47
2018-07-11T00:12:36.792Z,7.10
2018-07-11T00:15:05.567Z,7.43
2018-07-11T00:17:34.529Z,7.37
2018-07-11T00:20:02.983Z,7.17
2018-07-11T00:22:31.693Z,7.45
2018-07-11T00:25:00.150Z,8.00
2018-07-11T00:27:28.604Z,7.10
2018-07-11T00:29:57.254Z,7.83
2018-07-11T00:32:25.902Z,7.77
2018-07-11T00:34:54.397Z,7.50
2018-07-11T00:37:22.920Z,7.78
2018-07-11T00:39:51.445Z,7.85
2018-07-11T00:42:19.865Z,8.18
2018-07-11T00:44:48.255Z,7.85
2018-07-11T00:47:16.819Z,7.95
2018-07-11T00:49:54.781Z,7.73
2018-07-11T00:52:23.259Z,6.85
2018-07-11T00:54:51.889Z,7.00
2018-07-11T00:57:20.471Z,7.70
2018-07-11T00:59:49.013Z,7.55
2018-07-11T01:02:17.564Z,7.77
2018-07-11T01:04:46.049Z,7.08
2018-07-11T01:07:14.621Z,7.65
2018-07-11T01:09:49.807Z,7.30
2018-07-11T01:12:19.307Z,6.90
2018-07-11T01:14:48.397Z,7.03
2018-07-11T01:17:22.077Z,7.42
2018-07-11T01:19:51.030Z,7.20
2018-07-11T01:22:19.538Z,7.65
2018-07-11T01:24:48.030Z,7.20
2018-07-11T01:27:16.747Z,7.00
2018-07-11T01:29:45.389Z,6.75
2018-07-11T01:32:13.894Z,6.17
2018-07-11T01:34:42.519Z,6.75
2018-07-11T01:37:10.975Z,6.90
2018-07-11T01:39:39.495Z,6.83
2018-07-11T01:42:08.012Z,6.60
2018-07-11T01:44:36.477Z,6.65
2018-07-11T01:47:04.946Z,6.90
2018-07-11T01:49:33.505Z,6.50
2018-07-11T01:52:13.177Z,6.45
2018-07-11T01:54:41.681Z,6.80
2018-07-11T01:57:10.261Z,6.30
2018-07-11T01:59:38.735Z,6.15
2018-07-11T02:02:07.190Z,6.72
2018-07-11T02:04:37.814Z,6.60
2018-07-11T02:07:06.305Z,6.78
2018-07-11T02:09:34.879Z,6.53
2018-07-11T02:12:03.843Z,7.50
2018-07-11T02:14:32.322Z,7.37
2018-07-11T02:17:00.785Z,7.35
2018-07-11T02:19:38.651Z,8.60
2018-07-11T02:22:07.244Z,8.00
2018-07-11T02:24:35.723Z,8.33
2018-07-11T02:27:04.197Z,8.75
2018-07-11T02:29:37.747Z,8.00
2018-07-11T02:32:06.233Z,8.15
2018-07-11T02:34:35.487Z,8.30
2018-07-11T02:37:04.929Z,11.18
2018-07-11T02:39:47.186Z,10.20
2018-07-11T02:42:15.642Z,9.28
2018-07-11T02:44:44.357Z,9.48
2018-07-11T02:47:18.107Z,9.87
2018-07-11T02:52:44.155Z,9.53
2018-07-11T02:55:12.685Z,9.75
2018-07-11T02:57:41.114Z,9.30
2018-07-11T03:00:09.588Z,9.13
2018-07-11T03:02:38.749Z,9.13
2018-07-11T03:05:07.231Z,8.47
2018-07-11T03:07:35.769Z,8.45
2018-07-11T03:10:04.567Z,8.45
2018-07-11T03:12:33.279Z,8.30
2018-07-11T03:15:01.823Z,8.70
2018-07-11T03:17:30.394Z,8.53
2018-07-11T03:19:59.090Z,8.00
2018-07-11T03:22:27.685Z,8.38
2018-07-11T03:24:56.382Z,8.18
2018-07-11T03:27:24.938Z,8.85
2018-07-11T03:29:53.508Z,8.13
2018-07-11T03:32:22.006Z,9.83
2018-07-11T03:34:50.502Z,9.43
2018-07-11T03:37:18.933Z,10.13
2018-07-11T03:39:56.932Z,10.65
2018-07-11T03:42:25.447Z,10.30
2018-07-11T03:44:54.499Z,10.28
2018-07-11T03:47:23.058Z,9.83
2018-07-11T03:49:51.610Z,9.68
2018-07-11T03:52:20.190Z,9.68
2018-07-11T03:54:48.947Z,9.77
2018-07-11T03:57:17.369Z,8.33
2018-07-11T03:59:45.931Z,8.28
2018-07-11T04:02:14.657Z,8.63
2018-07-11T04:04:43.214Z,9.23
2018-07-11T04:07:11.797Z,9.03
2018-07-11T04:09:40.307Z,9.13
2018-07-11T04:12:08.885Z,9.50
2018-07-11T04:14:37.315Z,10.32
2018-07-11T04:17:06.085Z,10.58
2018-07-11T04:19:34.633Z,10.03
2018-07-11T04:22:03.203Z,9.68
2018-07-11T04:24:31.727Z,9.68
2018-07-11T04:27:00.565Z,9.83
2018-07-11T04:29:29.163Z,10.35
2018-07-11T04:31:57.865Z,9.95
2018-07-11T04:34:26.442Z,10.63
2018-07-11T04:36:55.828Z,10.90
2018-07-11T04:39:24.491Z,11.18
2018-07-11T04:41:53.045Z,11.43
2018-07-11T04:44:21.527Z,11.35
2018-07-11T04:46:50.247Z,12.10
2018-07-11T04:49:18.873Z,12.25
2018-07-11T04:51:47.869Z,12.33
2018-07-11T04:54:16.541Z,12.85
2018-07-11T04:56:45.006Z,14.13
2018-07-11T04:59:13.718Z,13.22
2018-07-11T05:01:42.185Z,11.70
2018-07-11T05:04:10.706Z,14.30
2018-07-11T05:06:39.235Z,14.43
2018-07-11T05:09:07.739Z,14.53
2018-07-11T05:11:37.085Z,17.13
2018-07-11T05:14:05.662Z,14.03
2018-07-11T05:16:34.117Z,13.28
2018-07-11T05:19:07.683Z,12.20
2018-07-11T05:21:36.253Z,12.75
2018-07-11T05:24:04.817Z,13.88
2018-07-11T05:26:33.946Z,13.60
2018-07-11T05:29:02.993Z,12.70
2018-07-11T05:31:31.507Z,13.20
2018-07-11T05:34:00.378Z,12.73
2018-07-11T05:36:29.150Z,12.30
2018-07-11T05:38:57.747Z,12.78
2018-07-11T05:41:26.265Z,11.50
2018-07-11T05:43:54.867Z,13.55
2018-07-11T05:46:23.437Z,13.25
2018-07-11T05:48:54.675Z,13.78
2018-07-11T05:51:28.143Z,14.43
2018-07-11T05:53:56.648Z,15.90
2018-07-11T05:56:25.175Z,14.30
2018-07-11T05:58:53.745Z,15.23
2018-07-11T06:01:22.229Z,15.50
2018-07-11T06:03:50.747Z,15.43
2018-07-11T06:06:19.399Z,16.23
2018-07-11T06:08:47.835Z,15.53
2018-07-11T06:11:23.059Z,14.68
2018-07-11T06:13:52.443Z,14.30
2018-07-11T06:16:21.070Z,14.98
2018-07-11T06:18:49.895Z,15.50
2018-07-11T06:21:18.998Z,15.68
2018-07-11T06:23:47.673Z,13.40
2018-07-11T06:26:16.195Z,13.13
2018-07-11T06:28:45.557Z,13.22
2018-07-11T06:31:14.131Z,14.13
2018-07-11T06:33:42.775Z,14.90
2018-07-11T06:36:11.269Z,14.23
2018-07-11T06:38:39.792Z,12.45
2018-07-11T06:41:09.660Z,12.13
2018-07-11T06:43:39.193Z,12.80
2018-07-11T06:46:07.969Z,11.85
2018-07-11T06:48:37.657Z,11.35
2018-07-11T06:51:06.915Z,10.60
2018-07-11T06:53:37.140Z,10.15
2018-07-11T06:56:07.811Z,10.65
2018-07-11T06:58:36.421Z,10.93
2018-07-11T07:01:04.879Z,10.82
2018-07-11T07:03:33.491Z,9.80
2018-07-11T07:06:02.063Z,7.50
2018-07-11T07:08:31.261Z,7.62
2018-07-11T07:11:00.757Z,6.95
2018-07-11T07:13:29.341Z,8.20
2018-07-11T07:15:57.805Z,6.30
2018-07-11T07:18:26.380Z,8.53
2018-07-11T07:20:54.945Z,7.83
2018-07-11T07:23:23.447Z,8.30
2018-07-11T07:25:52.045Z,7.15
2018-07-11T07:28:20.522Z,8.53
2018-07-11T07:30:49.049Z,9.40
2018-07-11T07:33:17.775Z,8.83
2018-07-11T07:35:46.401Z,8.37
2018-07-11T07:38:15.371Z,7.30
2018-07-11T07:40:44.292Z,9.45
2018-07-11T07:43:12.886Z,9.43
2018-07-11T07:45:41.974Z,9.48
2018-07-11T07:48:10.668Z,9.05
2018-07-11T07:50:39.229Z,8.73
2018-07-11T07:53:07.798Z,9.20
2018-07-11T07:55:36.348Z,8.80
2018-07-11T07:58:04.860Z,8.20
2018-07-11T08:00:33.454Z,8.30
2018-07-11T08:03:02.098Z,8.55
2018-07-11T08:05:30.755Z,8.20
2018-07-11T08:08:00.889Z,7.90
2018-07-11T08:10:29.446Z,8.43
2018-07-11T08:12:58.117Z,7.10
2018-07-11T08:15:26.724Z,7.50
2018-07-11T08:17:55.409Z,7.37
2018-07-11T08:20:24.193Z,7.60
2018-07-11T08:23:13.545Z,7.83
2018-07-11T08:25:54.839Z,7.42
2018-07-11T08:28:41.929Z,7.65
2018-07-11T08:35:27.752Z,8.20
2018-07-11T08:41:07.258Z,9.23
2018-07-11T08:45:52.383Z,8.98
2018-07-11T08:51:10.469Z,7.28
2018-07-11T08:53:50.039Z,6.80
2018-07-11T08:56:27.795Z,6.90
2018-07-11T08:59:39.223Z,6.65
2018-07-11T09:03:16.683Z,7.40
2018-07-11T09:07:00.473Z,7.83
2018-07-11T09:11:43.607Z,6.30
2018-07-11T09:17:27.645Z,5.47
2018-07-11T09:20:12.357Z,6.20
2018-07-11T09:23:07.343Z,6.27
2018-07-11T09:25:35.891Z,6.20
2018-07-11T09:28:05.715Z,5.53
2018-07-11T09:30:34.579Z,5.45
2018-07-11T09:33:03.873Z,5.05
2018-07-11T09:35:32.584Z,4.83
2018-07-11T09:38:01.910Z,4.78
2018-07-11T09:40:30.563Z,4.70
2018-07-11T09:42:59.173Z,5.30
2018-07-11T09:45:27.843Z,5.20
2018-07-11T09:47:56.435Z,4.90
2018-07-11T09:50:25.189Z,4.80
2018-07-11T09:52:55.139Z,4.80
2018-07-11T09:55:23.904Z,4.15
2018-07-11T09:57:52.610Z,4.40
2018-07-11T10:00:26.377Z,4.00
2018-07-11T10:02:55.839Z,3.70
